sensor_id;sensor_type;location;lat;lon;timestamp;temperature;humidity
22633;DHT22;11483;55.828;37.488;2023-08-24T00:00:44;15.40;99.90
22633;DHT22;11483;55.828;37.488;2023-08-24T00:03:10;15.50;99.90
22633;DHT22;11483;55.828;37.488;2023-08-24T00:05:36;15.50;99.90
22633;DHT22;11483;55.828;37.488;2023-08-24T00:08:09;15.60;99.90
22633;DHT22;11483;55.828;37.488;2023-08-24T00:10:36;15.60;99.90
22633;DHT22;11483;55.828;37.488;2023-08-24T00:13:02;15.70;99.90
22633;DHT22;11483;55.828;37.488;2023-08-24T00:15:28;15.70;99.90
22633;DHT22;11483;55.828;37.488;2023-08-24T00:17:55;15.70;99.90
22633;DHT22;11483;55.828;37.488;2023-08-24T00:20:21;15.70;99.90
22633;DHT22;11483;55.828;37.488;2023-08-24T00:22:47;15.60;99.90
22633;DHT22;11483;55.828;37.488;2023-08-24T00:25:13;15.50;99.90
22633;DHT22;11483;55.828;37.488;2023-08-24T00:27:39;15.50;99.90
22633;DHT22;11483;55.828;37.488;2023-08-24T00:30:07;15.50;99.90
22633;DHT22;11483;55.828;37.488;2023-08-24T00:32:34;15.50;99.90
22633;DHT22;11483;55.828;37.488;2023-08-24T00:35:04;15.60;99.90
22633;DHT22;11483;55.828;37.488;2023-08-24T00:37:33;15.60;99.90
22633;DHT22;11483;55.828;37.488;2023-08-24T00:40:00;15.60;99.90
22633;DHT22;11483;55.828;37.488;2023-08-24T00:42:30;15.70;99.90
22633;DHT22;11483;55.828;37.488;2023-08-24T00:44:57;15.70;99.90
22633;DHT22;11483;55.828;37.488;2023-08-24T00:47:24;15.70;99.90
22633;DHT22;11483;55.828;37.488;2023-08-24T00:49:50;15.80;99.90
22633;DHT22;11483;55.828;37.488;2023-08-24T00:52:17;15.80;99.90
22633;DHT22;11483;55.828;37.488;2023-08-24T00:54:44;15.80;99.90
22633;DHT22;11483;55.828;37.488;2023-08-24T00:57:10;15.80;99.90
22633;DHT22;11483;55.828;37.488;2023-08-24T00:59:36;15.90;99.90
22633;DHT22;11483;55.828;37.488;2023-08-24T01:02:02;15.90;99.90
22633;DHT22;11483;55.828;37.488;2023-08-24T01:04:28;15.90;99.90
22633;DHT22;11483;55.828;37.488;2023-08-24T01:06:54;15.90;99.90
22633;DHT22;11483;55.828;37.488;2023-08-24T01:09:21;15.90;99.90
22633;DHT22;11483;55.828;37.488;2023-08-24T01:17:23;16.00;99.90
22633;DHT22;11483;55.828;37.488;2023-08-24T01:19:53;15.90;99.90
22633;DHT22;11483;55.828;37.488;2023-08-24T01:28:04;15.90;99.90
22633;DHT22;11483;55.828;37.488;2023-08-24T01:30:31;15.90;99.90
22633;DHT22;11483;55.828;37.488;2023-08-24T01:32:57;15.90;99.90
22633;DHT22;11483;55.828;37.488;2023-08-24T01:35:22;15.90;99.90
22633;DHT22;11483;55.828;37.488;2023-08-24T01:37:49;15.90;99.90
22633;DHT22;11483;55.828;37.488;2023-08-24T01:40:23;15.90;99.90
22633;DHT22;11483;55.828;37.488;2023-08-24T01:42:56;15.90;99.90
22633;DHT22;11483;55.828;37.488;2023-08-24T01:45:26;15.80;99.90
22633;DHT22;11483;55.828;37.488;2023-08-24T01:47:55;15.80;99.90
22633;DHT22;11483;55.828;37.488;2023-08-24T01:50:21;15.80;99.90
22633;DHT22;11483;55.828;37.488;2023-08-24T01:52:48;15.80;99.90
22633;DHT22;11483;55.828;37.488;2023-08-24T01:55:18;15.80;99.90
22633;DHT22;11483;55.828;37.488;2023-08-24T01:57:44;15.80;99.90
22633;DHT22;11483;55.828;37.488;2023-08-24T02:00:10;15.80;99.90
22633;DHT22;11483;55.828;37.488;2023-08-24T02:02:36;15.80;99.90
22633;DHT22;11483;55.828;37.488;2023-08-24T02:05:03;15.80;99.90
22633;DHT22;11483;55.828;37.488;2023-08-24T02:07:29;15.80;99.90
22633;DHT22;11483;55.828;37.488;2023-08-24T02:09:55;15.80;99.90
22633;DHT22;11483;55.828;37.488;2023-08-24T02:12:21;15.80;99.90
22633;DHT22;11483;55.828;37.488;2023-08-24T02:14:47;15.80;99.90
22633;DHT22;11483;55.828;37.488;2023-08-24T02:17:13;15.80;99.90
22633;DHT22;11483;55.828;37.488;2023-08-24T02:19:40;15.80;99.90
22633;DHT22;11483;55.828;37.488;2023-08-24T02:22:08;15.80;99.90
22633;DHT22;11483;55.828;37.488;2023-08-24T02:24:34;15.80;99.90
22633;DHT22;11483;55.828;37.488;2023-08-24T02:27:00;15.80;99.90
22633;DHT22;11483;55.828;37.488;2023-08-24T02:29:26;15.70;99.90
22633;DHT22;11483;55.828;37.488;2023-08-24T02:31:53;15.70;99.90
22633;DHT22;11483;55.828;37.488;2023-08-24T02:34:19;15.70;99.90
22633;DHT22;11483;55.828;37.488;2023-08-24T02:36:45;15.60;99.90
22633;DHT22;11483;55.828;37.488;2023-08-24T02:39:11;15.60;99.90
22633;DHT22;11483;55.828;37.488;2023-08-24T02:41:36;15.50;99.90
22633;DHT22;11483;55.828;37.488;2023-08-24T02:44:02;15.60;99.90
22633;DHT22;11483;55.828;37.488;2023-08-24T02:46:29;15.50;99.90
22633;DHT22;11483;55.828;37.488;2023-08-24T02:48:55;15.50;99.90
22633;DHT22;11483;55.828;37.488;2023-08-24T02:51:22;15.50;99.90
22633;DHT22;11483;55.828;37.488;2023-08-24T02:53:49;15.50;99.90
22633;DHT22;11483;55.828;37.488;2023-08-24T02:56:14;15.50;99.90
22633;DHT22;11483;55.828;37.488;2023-08-24T02:58:40;15.50;99.90
22633;DHT22;11483;55.828;37.488;2023-08-24T03:01:07;15.50;99.90
22633;DHT22;11483;55.828;37.488;2023-08-24T03:03:34;15.50;99.90
22633;DHT22;11483;55.828;37.488;2023-08-24T03:06:01;15.50;99.90
22633;DHT22;11483;55.828;37.488;2023-08-24T03:08:29;15.50;99.90
22633;DHT22;11483;55.828;37.488;2023-08-24T03:10:55;15.50;99.90
22633;DHT22;11483;55.828;37.488;2023-08-24T03:13:21;15.60;99.90
22633;DHT22;11483;55.828;37.488;2023-08-24T03:15:47;15.60;99.90
22633;DHT22;11483;55.828;37.488;2023-08-24T03:18:15;15.60;99.90
22633;DHT22;11483;55.828;37.488;2023-08-24T03:20:41;15.60;99.90
22633;DHT22;11483;55.828;37.488;2023-08-24T03:23:07;15.60;99.90
22633;DHT22;11483;55.828;37.488;2023-08-24T03:25:37;15.60;99.90
22633;DHT22;11483;55.828;37.488;2023-08-24T03:28:04;15.10;99.90
22633;DHT22;11483;55.828;37.488;2023-08-24T03:30:30;15.60;99.90
22633;DHT22;11483;55.828;37.488;2023-08-24T03:32:56;15.60;99.90
22633;DHT22;11483;55.828;37.488;2023-08-24T03:35:22;15.70;99.90
22633;DHT22;11483;55.828;37.488;2023-08-24T03:37:48;15.70;99.90
22633;DHT22;11483;55.828;37.488;2023-08-24T03:40:14;15.70;99.90
22633;DHT22;11483;55.828;37.488;2023-08-24T03:42:40;15.70;99.90
22633;DHT22;11483;55.828;37.488;2023-08-24T03:45:06;15.70;99.90
22633;DHT22;11483;55.828;37.488;2023-08-24T03:47:32;15.70;99.90
22633;DHT22;11483;55.828;37.488;2023-08-24T03:49:58;15.70;99.90
22633;DHT22;11483;55.828;37.488;2023-08-24T03:52:24;15.70;99.90
22633;DHT22;11483;55.828;37.488;2023-08-24T03:54:50;15.80;99.90
22633;DHT22;11483;55.828;37.488;2023-08-24T03:57:16;15.80;99.90
22633;DHT22;11483;55.828;37.488;2023-08-24T03:59:42;15.90;99.90
22633;DHT22;11483;55.828;37.488;2023-08-24T04:02:08;15.90;99.90
22633;DHT22;11483;55.828;37.488;2023-08-24T04:04:34;16.00;99.90
22633;DHT22;11483;55.828;37.488;2023-08-24T04:06:59;16.10;99.90
22633;DHT22;11483;55.828;37.488;2023-08-24T04:09:25;16.20;99.90
22633;DHT22;11483;55.828;37.488;2023-08-24T04:11:51;16.40;99.90
22633;DHT22;11483;55.828;37.488;2023-08-24T04:14:17;16.50;99.90
22633;DHT22;11483;55.828;37.488;2023-08-24T04:16:43;16.50;99.90
22633;DHT22;11483;55.828;37.488;2023-08-24T04:19:09;16.60;99.90
22633;DHT22;11483;55.828;37.488;2023-08-24T04:21:35;16.70;99.90
22633;DHT22;11483;55.828;37.488;2023-08-24T04:24:01;16.80;99.90
22633;DHT22;11483;55.828;37.488;2023-08-24T04:26:27;16.80;99.90
22633;DHT22;11483;55.828;37.488;2023-08-24T04:28:52;16.90;99.90
22633;DHT22;11483;55.828;37.488;2023-08-24T04:31:18;17.00;99.90
22633;DHT22;11483;55.828;37.488;2023-08-24T04:33:44;17.20;99.90
22633;DHT22;11483;55.828;37.488;2023-08-24T04:36:10;17.40;99.90
22633;DHT22;11483;55.828;37.488;2023-08-24T04:38:36;17.50;99.90
22633;DHT22;11483;55.828;37.488;2023-08-24T04:41:03;17.60;99.90
22633;DHT22;11483;55.828;37.488;2023-08-24T04:43:33;17.70;99.90
22633;DHT22;11483;55.828;37.488;2023-08-24T04:45:59;17.80;99.90
22633;DHT22;11483;55.828;37.488;2023-08-24T04:48:26;17.70;99.90
22633;DHT22;11483;55.828;37.488;2023-08-24T04:50:52;17.70;99.90
22633;DHT22;11483;55.828;37.488;2023-08-24T04:53:19;17.70;99.90
22633;DHT22;11483;55.828;37.488;2023-08-24T04:55:46;17.70;99.90
22633;DHT22;11483;55.828;37.488;2023-08-24T04:58:16;17.80;99.90
22633;DHT22;11483;55.828;37.488;2023-08-24T05:00:42;17.70;99.90
22633;DHT22;11483;55.828;37.488;2023-08-24T05:03:08;17.70;99.90
22633;DHT22;11483;55.828;37.488;2023-08-24T05:05:35;17.60;99.90
22633;DHT22;11483;55.828;37.488;2023-08-24T05:08:03;17.50;99.90
22633;DHT22;11483;55.828;37.488;2023-08-24T05:10:32;17.50;99.90
22633;DHT22;11483;55.828;37.488;2023-08-24T05:12:59;17.50;99.90
22633;DHT22;11483;55.828;37.488;2023-08-24T05:15:25;17.40;99.90
22633;DHT22;11483;55.828;37.488;2023-08-24T05:17:51;17.40;99.90
22633;DHT22;11483;55.828;37.488;2023-08-24T05:20:25;17.40;99.90
22633;DHT22;11483;55.828;37.488;2023-08-24T05:22:51;17.40;99.90
22633;DHT22;11483;55.828;37.488;2023-08-24T05:25:17;17.40;99.90
22633;DHT22;11483;55.828;37.488;2023-08-24T05:27:43;17.40;99.90
22633;DHT22;11483;55.828;37.488;2023-08-24T05:30:10;17.40;99.90
22633;DHT22;11483;55.828;37.488;2023-08-24T05:32:36;17.40;99.90
22633;DHT22;11483;55.828;37.488;2023-08-24T05:35:05;17.40;99.90
22633;DHT22;11483;55.828;37.488;2023-08-24T05:37:32;17.40;99.90
22633;DHT22;11483;55.828;37.488;2023-08-24T05:40:02;17.40;99.90
22633;DHT22;11483;55.828;37.488;2023-08-24T05:42:28;17.40;99.90
22633;DHT22;11483;55.828;37.488;2023-08-24T05:44:55;17.30;99.90
22633;DHT22;11483;55.828;37.488;2023-08-24T05:47:20;17.10;99.90
22633;DHT22;11483;55.828;37.488;2023-08-24T05:49:46;17.10;99.90
22633;DHT22;11483;55.828;37.488;2023-08-24T05:52:12;17.10;99.90
22633;DHT22;11483;55.828;37.488;2023-08-24T05:54:38;17.10;99.90
22633;DHT22;11483;55.828;37.488;2023-08-24T05:57:04;17.00;99.90
22633;DHT22;11483;55.828;37.488;2023-08-24T05:59:34;16.90;99.90
22633;DHT22;11483;55.828;37.488;2023-08-24T06:02:00;16.80;99.90
22633;DHT22;11483;55.828;37.488;2023-08-24T06:04:26;16.80;99.90
22633;DHT22;11483;55.828;37.488;2023-08-24T06:06:52;16.70;99.90
22633;DHT22;11483;55.828;37.488;2023-08-24T06:09:18;16.60;99.90
22633;DHT22;11483;55.828;37.488;2023-08-24T06:11:44;16.50;99.90
22633;DHT22;11483;55.828;37.488;2023-08-24T06:14:10;16.60;99.90
22633;DHT22;11483;55.828;37.488;2023-08-24T06:16:35;16.50;99.90
22633;DHT22;11483;55.828;37.488;2023-08-24T06:19:01;16.40;99.90
22633;DHT22;11483;55.828;37.488;2023-08-24T06:21:27;16.40;99.90
22633;DHT22;11483;55.828;37.488;2023-08-24T06:23:53;16.30;99.90
22633;DHT22;11483;55.828;37.488;2023-08-24T06:26:19;16.20;99.90
22633;DHT22;11483;55.828;37.488;2023-08-24T06:28:44;16.10;99.90
22633;DHT22;11483;55.828;37.488;2023-08-24T06:31:11;16.00;99.90
22633;DHT22;11483;55.828;37.488;2023-08-24T06:33:38;15.90;99.90
22633;DHT22;11483;55.828;37.488;2023-08-24T06:36:05;15.80;99.90
22633;DHT22;11483;55.828;37.488;2023-08-24T06:38:31;15.80;99.90
22633;DHT22;11483;55.828;37.488;2023-08-24T06:40:58;15.90;99.90
22633;DHT22;11483;55.828;37.488;2023-08-24T06:43:25;16.00;99.90
22633;DHT22;11483;55.828;37.488;2023-08-24T06:45:51;16.10;99.90
22633;DHT22;11483;55.828;37.488;2023-08-24T06:48:17;16.10;99.90
22633;DHT22;11483;55.828;37.488;2023-08-24T06:50:44;16.10;99.90
22633;DHT22;11483;55.828;37.488;2023-08-24T06:53:10;16.20;99.90
22633;DHT22;11483;55.828;37.488;2023-08-24T06:55:35;16.20;99.90
22633;DHT22;11483;55.828;37.488;2023-08-24T06:58:03;16.20;99.90
22633;DHT22;11483;55.828;37.488;2023-08-24T07:00:32;16.30;99.90
22633;DHT22;11483;55.828;37.488;2023-08-24T07:02:59;16.30;99.90
22633;DHT22;11483;55.828;37.488;2023-08-24T07:05:25;16.40;99.90
22633;DHT22;11483;55.828;37.488;2023-08-24T07:07:51;16.50;99.90
22633;DHT22;11483;55.828;37.488;2023-08-24T07:10:17;16.60;99.90
22633;DHT22;11483;55.828;37.488;2023-08-24T07:12:43;16.70;99.90
22633;DHT22;11483;55.828;37.488;2023-08-24T07:15:11;16.70;99.90
22633;DHT22;11483;55.828;37.488;2023-08-24T07:17:37;16.80;99.90
22633;DHT22;11483;55.828;37.488;2023-08-24T07:20:04;16.80;99.90
22633;DHT22;11483;55.828;37.488;2023-08-24T07:22:39;16.50;99.90
22633;DHT22;11483;55.828;37.488;2023-08-24T07:25:06;16.30;99.90
22633;DHT22;11483;55.828;37.488;2023-08-24T07:27:32;16.20;99.90
22633;DHT22;11483;55.828;37.488;2023-08-24T07:30:00;16.10;99.90
22633;DHT22;11483;55.828;37.488;2023-08-24T07:32:27;16.30;99.90
22633;DHT22;11483;55.828;37.488;2023-08-24T07:34:53;16.60;99.90
22633;DHT22;11483;55.828;37.488;2023-08-24T07:37:19;17.00;99.90
22633;DHT22;11483;55.828;37.488;2023-08-24T07:39:45;17.40;99.90
22633;DHT22;11483;55.828;37.488;2023-08-24T07:42:11;17.70;99.90
22633;DHT22;11483;55.828;37.488;2023-08-24T07:44:37;17.80;99.90
22633;DHT22;11483;55.828;37.488;2023-08-24T07:47:03;17.70;99.90
22633;DHT22;11483;55.828;37.488;2023-08-24T07:49:29;17.60;99.90
22633;DHT22;11483;55.828;37.488;2023-08-24T07:51:55;17.50;99.90
22633;DHT22;11483;55.828;37.488;2023-08-24T07:54:22;17.50;99.90
22633;DHT22;11483;55.828;37.488;2023-08-24T07:56:48;17.40;99.90
22633;DHT22;11483;55.828;37.488;2023-08-24T07:59:14;17.40;99.90
22633;DHT22;11483;55.828;37.488;2023-08-24T08:01:40;17.50;99.90
22633;DHT22;11483;55.828;37.488;2023-08-24T08:04:06;17.50;99.90
22633;DHT22;11483;55.828;37.488;2023-08-24T08:06:32;17.50;99.90
22633;DHT22;11483;55.828;37.488;2023-08-24T08:08:57;17.50;99.90
22633;DHT22;11483;55.828;37.488;2023-08-24T08:11:27;17.70;99.90
22633;DHT22;11483;55.828;37.488;2023-08-24T08:13:53;17.80;99.90
22633;DHT22;11483;55.828;37.488;2023-08-24T08:16:19;18.00;99.90
22633;DHT22;11483;55.828;37.488;2023-08-24T08:18:45;18.00;99.90
22633;DHT22;11483;55.828;37.488;2023-08-24T08:21:17;18.20;99.90
22633;DHT22;11483;55.828;37.488;2023-08-24T08:23:44;18.40;99.90
22633;DHT22;11483;55.828;37.488;2023-08-24T08:26:13;18.60;99.90
22633;DHT22;11483;55.828;37.488;2023-08-24T08:28:42;18.70;99.90
22633;DHT22;11483;55.828;37.488;2023-08-24T08:31:08;18.80;99.90
22633;DHT22;11483;55.828;37.488;2023-08-24T08:33:34;18.70;99.90
22633;DHT22;11483;55.828;37.488;2023-08-24T08:36:00;18.70;99.90
22633;DHT22;11483;55.828;37.488;2023-08-24T08:38:26;18.50;99.90
22633;DHT22;11483;55.828;37.488;2023-08-24T08:41:01;18.40;99.90
22633;DHT22;11483;55.828;37.488;2023-08-24T08:43:28;18.30;99.90
22633;DHT22;11483;55.828;37.488;2023-08-24T08:45:55;18.20;99.90
22633;DHT22;11483;55.828;37.488;2023-08-24T08:48:22;18.10;99.90
22633;DHT22;11483;55.828;37.488;2023-08-24T08:50:52;18.00;99.90
22633;DHT22;11483;55.828;37.488;2023-08-24T08:53:23;17.90;99.90
22633;DHT22;11483;55.828;37.488;2023-08-24T08:55:51;17.70;99.90
22633;DHT22;11483;55.828;37.488;2023-08-24T08:58:20;17.40;99.90
22633;DHT22;11483;55.828;37.488;2023-08-24T09:00:47;17.40;99.90
22633;DHT22;11483;55.828;37.488;2023-08-24T09:03:17;17.40;99.90
22633;DHT22;11483;55.828;37.488;2023-08-24T09:05:43;17.50;99.90
22633;DHT22;11483;55.828;37.488;2023-08-24T09:08:12;17.70;99.90
22633;DHT22;11483;55.828;37.488;2023-08-24T09:10:38;17.80;99.90
22633;DHT22;11483;55.828;37.488;2023-08-24T09:13:04;18.00;99.90
22633;DHT22;11483;55.828;37.488;2023-08-24T09:15:34;18.10;99.90
22633;DHT22;11483;55.828;37.488;2023-08-24T09:18:02;18.20;99.90
22633;DHT22;11483;55.828;37.488;2023-08-24T09:20:29;18.30;99.90
22633;DHT22;11483;55.828;37.488;2023-08-24T09:22:55;18.30;99.90
22633;DHT22;11483;55.828;37.488;2023-08-24T09:25:23;18.40;99.90
22633;DHT22;11483;55.828;37.488;2023-08-24T09:28:03;18.50;99.90
22633;DHT22;11483;55.828;37.488;2023-08-24T09:30:35;18.80;99.90
22633;DHT22;11483;55.828;37.488;2023-08-24T09:33:11;19.10;99.90
22633;DHT22;11483;55.828;37.488;2023-08-24T09:35:37;19.10;99.90
22633;DHT22;11483;55.828;37.488;2023-08-24T09:38:19;19.10;99.90
22633;DHT22;11483;55.828;37.488;2023-08-24T09:40:46;19.00;99.90
22633;DHT22;11483;55.828;37.488;2023-08-24T09:43:16;19.00;99.90
22633;DHT22;11483;55.828;37.488;2023-08-24T09:45:53;19.00;99.90
22633;DHT22;11483;55.828;37.488;2023-08-24T09:48:19;19.10;99.90
22633;DHT22;11483;55.828;37.488;2023-08-24T09:50:46;19.10;99.90
22633;DHT22;11483;55.828;37.488;2023-08-24T09:53:18;19.30;99.90
22633;DHT22;11483;55.828;37.488;2023-08-24T09:55:55;19.50;99.90
22633;DHT22;11483;55.828;37.488;2023-08-24T09:58:23;19.60;99.90
22633;DHT22;11483;55.828;37.488;2023-08-24T10:00:49;19.90;99.90
22633;DHT22;11483;55.828;37.488;2023-08-24T10:03:18;19.90;99.90
22633;DHT22;11483;55.828;37.488;2023-08-24T10:05:56;19.90;99.90
22633;DHT22;11483;55.828;37.488;2023-08-24T10:08:29;20.10;99.90
22633;DHT22;11483;55.828;37.488;2023-08-24T10:10:56;19.80;99.90
22633;DHT22;11483;55.828;37.488;2023-08-24T10:13:50;19.40;99.90
22633;DHT22;11483;55.828;37.488;2023-08-24T10:16:20;19.00;99.90
22633;DHT22;11483;55.828;37.488;2023-08-24T10:18:47;18.90;99.90
22633;DHT22;11483;55.828;37.488;2023-08-24T10:21:14;18.80;99.90
22633;DHT22;11483;55.828;37.488;2023-08-24T10:23:42;18.80;99.90
22633;DHT22;11483;55.828;37.488;2023-08-24T10:26:08;19.00;99.90
22633;DHT22;11483;55.828;37.488;2023-08-24T10:28:36;19.50;99.90
22633;DHT22;11483;55.828;37.488;2023-08-24T10:31:02;20.00;99.90
22633;DHT22;11483;55.828;37.488;2023-08-24T10:33:29;20.40;99.90
22633;DHT22;11483;55.828;37.488;2023-08-24T10:35:56;20.70;99.90
22633;DHT22;11483;55.828;37.488;2023-08-24T10:38:26;20.90;99.90
22633;DHT22;11483;55.828;37.488;2023-08-24T10:40:52;20.80;99.90
22633;DHT22;11483;55.828;37.488;2023-08-24T10:43:18;20.60;99.90
22633;DHT22;11483;55.828;37.488;2023-08-24T10:45:58;20.30;99.90
22633;DHT22;11483;55.828;37.488;2023-08-24T10:48:26;20.10;99.90
22633;DHT22;11483;55.828;37.488;2023-08-24T10:53:44;19.70;99.90
22633;DHT22;11483;55.828;37.488;2023-08-24T10:56:17;19.50;99.90
22633;DHT22;11483;55.828;37.488;2023-08-24T10:58:47;19.30;99.90
22633;DHT22;11483;55.828;37.488;2023-08-24T11:01:32;19.10;99.90
22633;DHT22;11483;55.828;37.488;2023-08-24T11:03:58;18.80;99.90
22633;DHT22;11483;55.828;37.488;2023-08-24T11:06:25;18.60;99.90
22633;DHT22;11483;55.828;37.488;2023-08-24T11:09:06;18.50;99.90
22633;DHT22;11483;55.828;37.488;2023-08-24T11:11:32;18.60;99.90
22633;DHT22;11483;55.828;37.488;2023-08-24T11:14:14;18.60;99.90
22633;DHT22;11483;55.828;37.488;2023-08-24T11:16:42;18.70;99.90
22633;DHT22;11483;55.828;37.488;2023-08-24T11:19:10;18.80;99.90
22633;DHT22;11483;55.828;37.488;2023-08-24T11:21:38;18.90;99.90
22633;DHT22;11483;55.828;37.488;2023-08-24T11:24:05;19.10;99.90
22633;DHT22;11483;55.828;37.488;2023-08-24T11:26:31;19.50;99.90
22633;DHT22;11483;55.828;37.488;2023-08-24T11:28:57;19.90;99.90
22633;DHT22;11483;55.828;37.488;2023-08-24T11:31:26;20.10;99.90
22633;DHT22;11483;55.828;37.488;2023-08-24T11:33:56;20.40;99.90
22633;DHT22;11483;55.828;37.488;2023-08-24T11:36:22;20.90;99.90
22633;DHT22;11483;55.828;37.488;2023-08-24T11:38:55;21.10;99.90
22633;DHT22;11483;55.828;37.488;2023-08-24T11:41:21;20.90;99.90
22633;DHT22;11483;55.828;37.488;2023-08-24T11:43:49;20.40;99.90
22633;DHT22;11483;55.828;37.488;2023-08-24T11:46:19;20.00;99.90
22633;DHT22;11483;55.828;37.488;2023-08-24T11:48:45;19.80;99.90
22633;DHT22;11483;55.828;37.488;2023-08-24T11:51:12;19.50;99.90
22633;DHT22;11483;55.828;37.488;2023-08-24T11:53:42;19.30;99.90
22633;DHT22;11483;55.828;37.488;2023-08-24T11:56:09;19.00;99.90
22633;DHT22;11483;55.828;37.488;2023-08-24T11:58:42;19.00;99.90
22633;DHT22;11483;55.828;37.488;2023-08-24T12:01:09;18.70;99.90
22633;DHT22;11483;55.828;37.488;2023-08-24T12:03:39;18.60;99.90
22633;DHT22;11483;55.828;37.488;2023-08-24T12:06:15;18.60;99.90
22633;DHT22;11483;55.828;37.488;2023-08-24T12:08:43;18.80;99.90
22633;DHT22;11483;55.828;37.488;2023-08-24T12:11:18;19.10;99.90
22633;DHT22;11483;55.828;37.488;2023-08-24T12:13:48;19.30;99.90
22633;DHT22;11483;55.828;37.488;2023-08-24T12:16:16;19.50;99.90
22633;DHT22;11483;55.828;37.488;2023-08-24T12:18:56;19.70;99.90
22633;DHT22;11483;55.828;37.488;2023-08-24T12:21:25;19.80;99.90
22633;DHT22;11483;55.828;37.488;2023-08-24T12:23:59;19.60;99.90
22633;DHT22;11483;55.828;37.488;2023-08-24T12:26:26;19.50;99.90
22633;DHT22;11483;55.828;37.488;2023-08-24T12:28:53;19.50;99.90
22633;DHT22;11483;55.828;37.488;2023-08-24T12:31:19;19.50;99.90
22633;DHT22;11483;55.828;37.488;2023-08-24T12:33:45;19.60;99.90
22633;DHT22;11483;55.828;37.488;2023-08-24T12:36:12;19.60;99.90
22633;DHT22;11483;55.828;37.488;2023-08-24T12:38:37;19.50;99.90
22633;DHT22;11483;55.828;37.488;2023-08-24T12:41:04;19.70;99.90
22633;DHT22;11483;55.828;37.488;2023-08-24T12:43:30;20.00;99.90
22633;DHT22;11483;55.828;37.488;2023-08-24T12:45:56;20.20;99.90
22633;DHT22;11483;55.828;37.488;2023-08-24T12:48:22;20.50;99.90
22633;DHT22;11483;55.828;37.488;2023-08-24T12:50:47;20.70;99.90
22633;DHT22;11483;55.828;37.488;2023-08-24T12:53:13;20.90;99.90
22633;DHT22;11483;55.828;37.488;2023-08-24T12:55:40;21.10;99.90
22633;DHT22;11483;55.828;37.488;2023-08-24T12:58:06;21.10;99.90
22633;DHT22;11483;55.828;37.488;2023-08-24T13:00:32;20.90;99.90
22633;DHT22;11483;55.828;37.488;2023-08-24T13:02:58;20.90;99.90
22633;DHT22;11483;55.828;37.488;2023-08-24T13:05:27;20.90;99.90
22633;DHT22;11483;55.828;37.488;2023-08-24T13:07:53;20.90;99.90
22633;DHT22;11483;55.828;37.488;2023-08-24T13:10:20;21.00;99.90
22633;DHT22;11483;55.828;37.488;2023-08-24T13:12:46;21.10;99.90
22633;DHT22;11483;55.828;37.488;2023-08-24T13:15:13;21.10;99.90
22633;DHT22;11483;55.828;37.488;2023-08-24T13:17:40;21.00;99.90
22633;DHT22;11483;55.828;37.488;2023-08-24T13:20:07;20.80;99.90
22633;DHT22;11483;55.828;37.488;2023-08-24T13:22:33;20.40;99.90
22633;DHT22;11483;55.828;37.488;2023-08-24T13:24:59;20.10;99.90
22633;DHT22;11483;55.828;37.488;2023-08-24T13:27:25;19.90;99.90
22633;DHT22;11483;55.828;37.488;2023-08-24T13:29:51;19.70;99.90
22633;DHT22;11483;55.828;37.488;2023-08-24T13:32:17;19.60;99.90
22633;DHT22;11483;55.828;37.488;2023-08-24T13:34:42;19.50;99.90
22633;DHT22;11483;55.828;37.488;2023-08-24T13:37:08;19.30;99.90
22633;DHT22;11483;55.828;37.488;2023-08-24T13:39:34;19.20;99.90
22633;DHT22;11483;55.828;37.488;2023-08-24T13:42:01;19.10;99.90
22633;DHT22;11483;55.828;37.488;2023-08-24T13:44:27;19.00;99.90
22633;DHT22;11483;55.828;37.488;2023-08-24T13:46:52;19.00;99.90
22633;DHT22;11483;55.828;37.488;2023-08-24T13:49:19;19.00;99.90
22633;DHT22;11483;55.828;37.488;2023-08-24T13:51:45;19.10;99.90
22633;DHT22;11483;55.828;37.488;2023-08-24T13:54:15;19.20;99.90
22633;DHT22;11483;55.828;37.488;2023-08-24T13:56:45;19.30;99.90
22633;DHT22;11483;55.828;37.488;2023-08-24T13:59:12;19.20;99.90
22633;DHT22;11483;55.828;37.488;2023-08-24T14:01:38;19.20;99.90
22633;DHT22;11483;55.828;37.488;2023-08-24T14:04:04;19.30;99.90
22633;DHT22;11483;55.828;37.488;2023-08-24T14:06:31;19.40;99.90
22633;DHT22;11483;55.828;37.488;2023-08-24T14:08:57;19.40;99.90
22633;DHT22;11483;55.828;37.488;2023-08-24T14:11:23;19.40;99.90
22633;DHT22;11483;55.828;37.488;2023-08-24T14:13:50;19.30;99.90
22633;DHT22;11483;55.828;37.488;2023-08-24T14:16:18;19.20;99.90
22633;DHT22;11483;55.828;37.488;2023-08-24T14:18:45;19.10;99.90
22633;DHT22;11483;55.828;37.488;2023-08-24T14:21:11;19.20;99.90
22633;DHT22;11483;55.828;37.488;2023-08-24T14:23:37;19.40;99.90
22633;DHT22;11483;55.828;37.488;2023-08-24T14:26:03;19.40;99.90
22633;DHT22;11483;55.828;37.488;2023-08-24T14:31:22;19.60;99.90
22633;DHT22;11483;55.828;37.488;2023-08-24T14:33:49;19.50;99.90
22633;DHT22;11483;55.828;37.488;2023-08-24T14:36:16;19.40;99.90
22633;DHT22;11483;55.828;37.488;2023-08-24T14:38:42;19.20;99.90
22633;DHT22;11483;55.828;37.488;2023-08-24T14:41:12;19.20;99.90
22633;DHT22;11483;55.828;37.488;2023-08-24T14:43:39;19.20;99.90
22633;DHT22;11483;55.828;37.488;2023-08-24T14:46:05;19.20;99.90
22633;DHT22;11483;55.828;37.488;2023-08-24T14:48:32;19.20;99.90
22633;DHT22;11483;55.828;37.488;2023-08-24T14:50:58;19.30;99.90
22633;DHT22;11483;55.828;37.488;2023-08-24T14:53:26;19.20;99.90
22633;DHT22;11483;55.828;37.488;2023-08-24T14:55:55;19.10;99.90
22633;DHT22;11483;55.828;37.488;2023-08-24T14:58:22;19.00;99.90
22633;DHT22;11483;55.828;37.488;2023-08-24T15:00:49;19.00;99.90
22633;DHT22;11483;55.828;37.488;2023-08-24T15:03:15;19.30;99.90
22633;DHT22;11483;55.828;37.488;2023-08-24T15:05:46;19.60;99.90
22633;DHT22;11483;55.828;37.488;2023-08-24T15:08:13;19.90;99.90
22633;DHT22;11483;55.828;37.488;2023-08-24T15:10:39;20.20;99.90
22633;DHT22;11483;55.828;37.488;2023-08-24T15:13:05;20.20;99.90
22633;DHT22;11483;55.828;37.488;2023-08-24T15:15:35;19.90;99.90
22633;DHT22;11483;55.828;37.488;2023-08-24T15:18:03;19.90;99.90
22633;DHT22;11483;55.828;37.488;2023-08-24T15:20:29;19.80;99.90
22633;DHT22;11483;55.828;37.488;2023-08-24T15:22:55;19.60;99.90
22633;DHT22;11483;55.828;37.488;2023-08-24T15:25:20;19.30;99.90
22633;DHT22;11483;55.828;37.488;2023-08-24T15:27:47;19.20;99.90
22633;DHT22;11483;55.828;37.488;2023-08-24T15:30:13;19.00;99.90
22633;DHT22;11483;55.828;37.488;2023-08-24T15:32:39;18.90;99.90